sensor_id;sensor_type;location;lat;lon;timestamp;pressure;altitude;pressure_sealevel;temperature;humidity
30463;BME280;17256;43.618;25.336;2023-10-09T00:01:07;101326.47;;;13.82;58.65
30463;BME280;17256;43.618;25.336;2023-10-09T00:03:42;101309.91;;;13.82;58.64
30463;BME280;17256;43.618;25.336;2023-10-09T00:06:09;101283.63;;;13.59;58.72
30463;BME280;17256;43.618;25.336;2023-10-09T00:08:38;101289.78;;;13.61;59.04
30463;BME280;17256;43.618;25.336;2023-10-09T00:11:05;101316.47;;;13.81;58.76
30463;BME280;17256;43.618;25.336;2023-10-09T00:13:44;101287.69;;;13.63;58.70
30463;BME280;17256;43.618;25.336;2023-10-09T00:16:18;101335.16;;;13.79;58.85
30463;BME280;17256;43.618;25.336;2023-10-09T00:19:04;101264.66;;;13.42;59.14
30463;BME280;17256;43.618;25.336;2023-10-09T00:21:49;101344.53;;;13.85;59.20
30463;BME280;17256;43.618;25.336;2023-10-09T00:24:17;101297.59;;;13.50;59.38
30463;BME280;17256;43.618;25.336;2023-10-09T00:26:52;101310.97;;;13.53;59.35
30463;BME280;17256;43.618;25.336;2023-10-09T00:29:21;101333.63;;;13.70;59.04
30463;BME280;17256;43.618;25.336;2023-10-09T00:31:52;101306.28;;;13.47;59.43
30463;BME280;17256;43.618;25.336;2023-10-09T00:34:29;101317.16;;;13.55;59.27
30463;BME280;17256;43.618;25.336;2023-10-09T00:36:55;101354.44;;;13.73;59.97
30463;BME280;17256;43.618;25.336;2023-10-09T00:39:23;101343.16;;;13.68;59.78
30463;BME280;17256;43.618;25.336;2023-10-09T00:42:06;101329.75;;;13.65;59.35
30463;BME280;17256;43.618;25.336;2023-10-09T00:44:32;101326.72;;;13.60;59.06
30463;BME280;17256;43.618;25.336;2023-10-09T00:47:11;101367.88;;;13.82;59.60
30463;BME280;17256;43.618;25.336;2023-10-09T00:49:57;101336.13;;;13.65;59.29
30463;BME280;17256;43.618;25.336;2023-10-09T00:52:30;101382.97;;;13.86;58.79
30463;BME280;17256;43.618;25.336;2023-10-09T00:55:15;101355.38;;;13.59;58.82
30463;BME280;17256;43.618;25.336;2023-10-09T00:57:48;101391.88;;;13.82;58.85
30463;BME280;17256;43.618;25.336;2023-10-09T01:00:16;101392.31;;;13.85;58.60
30463;BME280;17256;43.618;25.336;2023-10-09T01:03:03;101343.03;;;13.54;58.47
30463;BME280;17256;43.618;25.336;2023-10-09T01:06:01;101381.81;;;13.68;58.77
30463;BME280;17256;43.618;25.336;2023-10-09T01:08:42;101396.75;;;13.80;58.65
30463;BME280;17256;43.618;25.336;2023-10-09T01:11:11;101396.09;;;13.78;58.26
30463;BME280;17256;43.618;25.336;2023-10-09T01:13:55;101363.81;;;13.50;58.46
30463;BME280;17256;43.618;25.336;2023-10-09T01:16:38;101370.59;;;13.48;58.50
30463;BME280;17256;43.618;25.336;2023-10-09T01:19:05;101403.22;;;13.66;58.91
30463;BME280;17256;43.618;25.336;2023-10-09T01:21:38;101417.09;;;13.72;58.90
30463;BME280;17256;43.618;25.336;2023-10-09T01:24:05;101399.00;;;13.70;58.88
30463;BME280;17256;43.618;25.336;2023-10-09T01:26:36;101421.75;;;13.72;58.95
30463;BME280;17256;43.618;25.336;2023-10-09T01:29:08;101349.56;;;13.19;58.73
30463;BME280;17256;43.618;25.336;2023-10-09T01:31:44;101409.06;;;13.56;58.60
30463;BME280;17256;43.618;25.336;2023-10-09T01:34:38;101399.69;;;13.50;58.59
30463;BME280;17256;43.618;25.336;2023-10-09T01:37:14;101367.59;;;13.21;58.31
30463;BME280;17256;43.618;25.336;2023-10-09T01:39:55;101383.31;;;13.21;58.50
30463;BME280;17256;43.618;25.336;2023-10-09T01:42:44;101390.34;;;13.09;59.02
30463;BME280;17256;43.618;25.336;2023-10-09T01:45:13;101453.19;;;13.49;58.35
30463;BME280;17256;43.618;25.336;2023-10-09T01:47:44;101415.16;;;13.23;57.87
30463;BME280;17256;43.618;25.336;2023-10-09T01:50:30;101395.53;;;12.97;58.31
30463;BME280;17256;43.618;25.336;2023-10-09T01:53:01;101413.88;;;13.05;58.40
30463;BME280;17256;43.618;25.336;2023-10-09T01:55:31;101426.50;;;13.14;58.33
30463;BME280;17256;43.618;25.336;2023-10-09T01:58:00;101434.38;;;13.17;58.29
30463;BME280;17256;43.618;25.336;2023-10-09T02:00:32;101419.63;;;13.10;58.33
30463;BME280;17256;43.618;25.336;2023-10-09T02:03:09;101468.47;;;13.31;58.23
30463;BME280;17256;43.618;25.336;2023-10-09T02:05:38;101412.13;;;12.82;58.57
30463;BME280;17256;43.618;25.336;2023-10-09T02:08:04;101485.16;;;13.22;58.52
30463;BME280;17256;43.618;25.336;2023-10-09T02:10:31;101473.94;;;13.09;58.47
30463;BME280;17256;43.618;25.336;2023-10-09T02:13:05;101475.09;;;13.15;58.38
30463;BME280;17256;43.618;25.336;2023-10-09T02:15:39;101482.69;;;13.13;58.35
30463;BME280;17256;43.618;25.336;2023-10-09T02:18:18;101483.47;;;13.07;58.93
30463;BME280;17256;43.618;25.336;2023-10-09T02:21:05;101428.31;;;12.71;58.50
30463;BME280;17256;43.618;25.336;2023-10-09T02:23:33;101449.56;;;12.91;58.25
30463;BME280;17256;43.618;25.336;2023-10-09T02:26:19;101457.66;;;12.78;58.46
30463;BME280;17256;43.618;25.336;2023-10-09T02:28:50;101479.19;;;13.04;58.72
30463;BME280;17256;43.618;25.336;2023-10-09T02:31:28;101451.22;;;12.71;58.81
30463;BME280;17256;43.618;25.336;2023-10-09T02:34:09;101484.44;;;12.99;58.61
30463;BME280;17256;43.618;25.336;2023-10-09T02:36:37;101443.91;;;12.63;58.86
30463;BME280;17256;43.618;25.336;2023-10-09T02:39:06;101426.56;;;12.48;59.10
30463;BME280;17256;43.618;25.336;2023-10-09T02:41:37;101460.75;;;12.54;59.37
30463;BME280;17256;43.618;25.336;2023-10-09T02:44:14;101409.75;;;12.28;59.16
30463;BME280;17256;43.618;25.336;2023-10-09T02:46:41;101477.34;;;12.60;59.36
30463;BME280;17256;43.618;25.336;2023-10-09T02:49:07;101467.56;;;12.58;59.34
30463;BME280;17256;43.618;25.336;2023-10-09T02:51:35;101484.97;;;12.73;59.35
30463;BME280;17256;43.618;25.336;2023-10-09T02:54:07;101477.16;;;12.62;59.33
30463;BME280;17256;43.618;25.336;2023-10-09T02:56:49;101416.28;;;12.13;59.49
30463;BME280;17256;43.618;25.336;2023-10-09T02:59:24;101487.25;;;12.55;59.43
30463;BME280;17256;43.618;25.336;2023-10-09T03:02:04;101473.00;;;12.37;59.44
30463;BME280;17256;43.618;25.336;2023-10-09T03:04:30;101468.53;;;12.36;59.20
30463;BME280;17256;43.618;25.336;2023-10-09T03:06:59;101472.34;;;12.35;59.23
30463;BME280;17256;43.618;25.336;2023-10-09T03:09:25;101439.38;;;12.26;58.99
30463;BME280;17256;43.618;25.336;2023-10-09T03:11:55;101418.38;;;12.11;59.08
30463;BME280;17256;43.618;25.336;2023-10-09T03:14:25;101468.25;;;12.30;58.69
30463;BME280;17256;43.618;25.336;2023-10-09T03:16:52;101438.91;;;12.08;58.66
30463;BME280;17256;43.618;25.336;2023-10-09T03:19:18;101455.03;;;12.11;58.84
30463;BME280;17256;43.618;25.336;2023-10-09T03:21:43;101465.66;;;12.14;58.60
30463;BME280;17256;43.618;25.336;2023-10-09T03:24:09;101473.47;;;12.11;58.90
30463;BME280;17256;43.618;25.336;2023-10-09T03:26:36;101450.78;;;11.94;58.72
30463;BME280;17256;43.618;25.336;2023-10-09T03:29:02;101517.44;;;12.33;58.96
30463;BME280;17256;43.618;25.336;2023-10-09T03:31:33;101489.03;;;12.04;58.61
30463;BME280;17256;43.618;25.336;2023-10-09T03:34:00;101523.34;;;12.30;58.58
30463;BME280;17256;43.618;25.336;2023-10-09T03:36:25;101479.72;;;12.05;58.72
30463;BME280;17256;43.618;25.336;2023-10-09T03:38:56;101480.09;;;12.01;58.53
30463;BME280;17256;43.618;25.336;2023-10-09T03:41:24;101475.72;;;11.92;58.88
30463;BME280;17256;43.618;25.336;2023-10-09T03:43:52;101524.97;;;12.25;58.82
30463;BME280;17256;43.618;25.336;2023-10-09T03:46:20;101521.53;;;12.23;58.93
30463;BME280;17256;43.618;25.336;2023-10-09T03:48:51;101467.91;;;11.81;59.17
30463;BME280;17256;43.618;25.336;2023-10-09T03:51:18;101498.84;;;11.83;59.37
30463;BME280;17256;43.618;25.336;2023-10-09T03:53:51;101548.38;;;12.06;59.50
30463;BME280;17256;43.618;25.336;2023-10-09T03:56:18;101468.72;;;11.67;59.68
30463;BME280;17256;43.618;25.336;2023-10-09T03:58:48;101524.06;;;11.95;59.84
30463;BME280;17256;43.618;25.336;2023-10-09T04:01:19;101518.28;;;12.05;59.68
30463;BME280;17256;43.618;25.336;2023-10-09T04:03:55;101555.16;;;12.18;60.05
30463;BME280;17256;43.618;25.336;2023-10-09T04:06:21;101524.97;;;11.87;60.37
30463;BME280;17256;43.618;25.336;2023-10-09T04:08:48;101534.88;;;11.96;60.66
30463;BME280;17256;43.618;25.336;2023-10-09T04:11:16;101489.34;;;11.63;61.60
30463;BME280;17256;43.618;25.336;2023-10-09T04:13:44;101502.59;;;11.67;61.90
30463;BME280;17256;43.618;25.336;2023-10-09T04:16:15;101562.88;;;12.00;62.03
30463;BME280;17256;43.618;25.336;2023-10-09T04:18:59;101559.47;;;11.98;62.62
30463;BME280;17256;43.618;25.336;2023-10-09T04:21:31;101573.59;;;11.95;63.00
30463;BME280;17256;43.618;25.336;2023-10-09T04:24:05;101572.66;;;12.02;63.28
30463;BME280;17256;43.618;25.336;2023-10-09T04:26:49;101565.75;;;11.84;63.31
30463;BME280;17256;43.618;25.336;2023-10-09T04:29:22;101572.41;;;11.89;63.76
30463;BME280;17256;43.618;25.336;2023-10-09T04:31:53;101528.63;;;11.57;64.09
30463;BME280;17256;43.618;25.336;2023-10-09T04:34:24;101534.69;;;11.75;64.17
30463;BME280;17256;43.618;25.336;2023-10-09T04:36:55;101528.13;;;11.53;64.58
30463;BME280;17256;43.618;25.336;2023-10-09T04:39:27;101554.69;;;11.69;65.67
30463;BME280;17256;43.618;25.336;2023-10-09T04:42:15;101596.00;;;11.92;65.88
30463;BME280;17256;43.618;25.336;2023-10-09T04:44:44;101578.38;;;11.78;66.60
30463;BME280;17256;43.618;25.336;2023-10-09T04:47:45;101552.00;;;11.84;66.42
30463;BME280;17256;43.618;25.336;2023-10-09T04:50:24;101556.84;;;11.82;66.65
30463;BME280;17256;43.618;25.336;2023-10-09T04:53:13;101556.09;;;11.88;66.96
30463;BME280;17256;43.618;25.336;2023-10-09T04:55:44;101558.50;;;11.91;67.19
30463;BME280;17256;43.618;25.336;2023-10-09T04:58:23;101592.84;;;12.18;68.05
30463;BME280;17256;43.618;25.336;2023-10-09T05:00:50;101554.91;;;11.90;68.28
30463;BME280;17256;43.618;25.336;2023-10-09T05:03:25;101574.16;;;11.90;69.13
30463;BME280;17256;43.618;25.336;2023-10-09T05:05:55;101574.28;;;11.97;69.55
30463;BME280;17256;43.618;25.336;2023-10-09T05:08:25;101566.88;;;12.12;69.67
30463;BME280;17256;43.618;25.336;2023-10-09T05:13:28;101586.13;;;12.20;69.81
30463;BME280;17256;43.618;25.336;2023-10-09T05:16:06;101631.38;;;12.41;70.53
30463;BME280;17256;43.618;25.336;2023-10-09T05:18:45;101577.28;;;12.25;70.95
30463;BME280;17256;43.618;25.336;2023-10-09T05:21:30;101623.69;;;12.51;71.42
30463;BME280;17256;43.618;25.336;2023-10-09T05:24:00;101609.63;;;12.46;71.77
30463;BME280;17256;43.618;25.336;2023-10-09T05:26:48;101625.97;;;12.47;72.30
30463;BME280;17256;43.618;25.336;2023-10-09T05:29:22;101642.75;;;12.75;71.64
30463;BME280;17256;43.618;25.336;2023-10-09T05:31:57;101634.00;;;12.86;70.74
30463;BME280;17256;43.618;25.336;2023-10-09T05:34:30;101648.00;;;13.00;70.67
30463;BME280;17256;43.618;25.336;2023-10-09T05:37:14;101605.00;;;13.05;69.84
30463;BME280;17256;43.618;25.336;2023-10-09T05:39:48;101608.25;;;12.94;70.18
30463;BME280;17256;43.618;25.336;2023-10-09T05:42:36;101656.81;;;13.10;71.00
30463;BME280;17256;43.618;25.336;2023-10-09T05:45:16;101615.09;;;12.69;71.73
30463;BME280;17256;43.618;25.336;2023-10-09T05:47:51;101669.63;;;12.88;72.55
30463;BME280;17256;43.618;25.336;2023-10-09T05:50:20;101640.63;;;12.62;73.06
30463;BME280;17256;43.618;25.336;2023-10-09T05:56:14;101645.69;;;12.74;74.80
30463;BME280;17256;43.618;25.336;2023-10-09T05:58:57;101678.25;;;13.22;73.99
30463;BME280;17256;43.618;25.336;2023-10-09T06:01:41;101636.56;;;13.03;72.29
30463;BME280;17256;43.618;25.336;2023-10-09T06:04:22;101634.41;;;13.42;71.26
30463;BME280;17256;43.618;25.336;2023-10-09T06:07:01;101646.31;;;14.00;69.82
30463;BME280;17256;43.618;25.336;2023-10-09T06:09:39;101689.94;;;14.48;67.98
30463;BME280;17256;43.618;25.336;2023-10-09T06:12:21;101608.22;;;14.38;66.56
30463;BME280;17256;43.618;25.336;2023-10-09T06:15:14;101682.41;;;15.19;65.27
30463;BME280;17256;43.618;25.336;2023-10-09T06:17:59;101675.41;;;15.23;64.68
30463;BME280;17256;43.618;25.336;2023-10-09T06:20:45;101580.00;;;14.77;63.92
30463;BME280;17256;43.618;25.336;2023-10-09T06:23:29;101658.59;;;15.24;63.06
30463;BME280;17256;43.618;25.336;2023-10-09T06:26:21;101649.91;;;14.93;63.81
30463;BME280;17256;43.618;25.336;2023-10-09T06:28:51;101644.19;;;15.01;64.20
30463;BME280;17256;43.618;25.336;2023-10-09T06:31:37;101629.72;;;14.99;64.13
30463;BME280;17256;43.618;25.336;2023-10-09T06:34:23;101654.34;;;14.87;62.03
30463;BME280;17256;43.618;25.336;2023-10-09T06:36:59;101631.25;;;14.73;61.51
30463;BME280;17256;43.618;25.336;2023-10-09T06:39:34;101639.72;;;15.00;61.08
30463;BME280;17256;43.618;25.336;2023-10-09T06:42:18;101633.50;;;14.91;60.06
30463;BME280;17256;43.618;25.336;2023-10-09T06:45:03;101664.78;;;15.26;60.34
30463;BME280;17256;43.618;25.336;2023-10-09T06:47:50;101628.34;;;15.16;58.73
30463;BME280;17256;43.618;25.336;2023-10-09T06:50:35;101655.19;;;15.22;57.68
30463;BME280;17256;43.618;25.336;2023-10-09T06:53:19;101642.66;;;14.92;54.74
30463;BME280;17256;43.618;25.336;2023-10-09T06:55:46;101673.88;;;15.14;54.67
30463;BME280;17256;43.618;25.336;2023-10-09T06:58:15;101606.78;;;14.70;54.72
30463;BME280;17256;43.618;25.336;2023-10-09T07:00:52;101548.38;;;14.52;54.29
30463;BME280;17256;43.618;25.336;2023-10-09T07:03:27;101609.94;;;15.02;54.60
30463;BME280;17256;43.618;25.336;2023-10-09T07:06:15;101681.53;;;15.53;52.79
30463;BME280;17256;43.618;25.336;2023-10-09T07:08:54;101666.53;;;15.34;53.06
30463;BME280;17256;43.618;25.336;2023-10-09T07:11:32;101693.97;;;15.63;53.10
30463;BME280;17256;43.618;25.336;2023-10-09T07:14:14;101594.16;;;15.37;51.81
30463;BME280;17256;43.618;25.336;2023-10-09T07:17:00;101637.56;;;15.78;52.01
30463;BME280;17256;43.618;25.336;2023-10-09T07:19:27;101643.53;;;15.81;51.24
30463;BME280;17256;43.618;25.336;2023-10-09T07:22:02;101680.09;;;16.11;51.57
30463;BME280;17256;43.618;25.336;2023-10-09T07:24:41;101685.63;;;16.18;51.15
30463;BME280;17256;43.618;25.336;2023-10-09T07:27:19;101635.00;;;15.83;50.30
30463;BME280;17256;43.618;25.336;2023-10-09T07:30:06;101658.75;;;16.18;50.63
30463;BME280;17256;43.618;25.336;2023-10-09T07:35:21;101641.50;;;16.49;49.18
30463;BME280;17256;43.618;25.336;2023-10-09T07:38:05;101635.97;;;16.56;49.06
30463;BME280;17256;43.618;25.336;2023-10-09T07:40:34;101650.25;;;16.59;48.73
30463;BME280;17256;43.618;25.336;2023-10-09T07:43:18;101685.88;;;17.22;48.09
30463;BME280;17256;43.618;25.336;2023-10-09T07:46:04;101645.75;;;17.11;48.15
30463;BME280;17256;43.618;25.336;2023-10-09T07:48:30;101603.09;;;16.79;47.44
30463;BME280;17256;43.618;25.336;2023-10-09T07:51:14;101634.69;;;16.91;47.24
30463;BME280;17256;43.618;25.336;2023-10-09T07:53:42;101640.22;;;16.98;47.31
30463;BME280;17256;43.618;25.336;2023-10-09T07:56:11;101604.75;;;17.07;47.80
30463;BME280;17256;43.618;25.336;2023-10-09T07:58:40;101694.94;;;17.62;46.31
30463;BME280;17256;43.618;25.336;2023-10-09T08:01:12;101696.50;;;17.38;46.17
30463;BME280;17256;43.618;25.336;2023-10-09T08:03:46;101610.16;;;16.88;46.39
30463;BME280;17256;43.618;25.336;2023-10-09T08:06:13;101626.50;;;17.23;45.45
30463;BME280;17256;43.618;25.336;2023-10-09T08:09:17;101582.56;;;17.13;45.44
30463;BME280;17256;43.618;25.336;2023-10-09T08:11:45;101628.34;;;17.42;45.18
30463;BME280;17256;43.618;25.336;2023-10-09T08:14:14;101544.22;;;16.57;44.93
30463;BME280;17256;43.618;25.336;2023-10-09T08:16:46;101631.66;;;17.13;45.07
30463;BME280;17256;43.618;25.336;2023-10-09T08:19:11;101634.13;;;17.41;44.86
30463;BME280;17256;43.618;25.336;2023-10-09T08:22:06;101557.34;;;17.15;44.18
30463;BME280;17256;43.618;25.336;2023-10-09T08:24:52;101675.25;;;18.15;43.54
30463;BME280;17256;43.618;25.336;2023-10-09T08:29:59;101625.31;;;17.95;43.41
30463;BME280;17256;43.618;25.336;2023-10-09T08:32:57;101618.00;;;17.69;43.31
30463;BME280;17256;43.618;25.336;2023-10-09T08:35:29;101666.34;;;18.00;43.26
30463;BME280;17256;43.618;25.336;2023-10-09T08:38:02;101653.94;;;18.02;43.05
30463;BME280;17256;43.618;25.336;2023-10-09T08:40:39;101626.44;;;18.19;43.43
30463;BME280;17256;43.618;25.336;2023-10-09T08:43:18;101613.00;;;18.16;42.75
30463;BME280;17256;43.618;25.336;2023-10-09T08:45:54;101632.72;;;18.39;42.39
30463;BME280;17256;43.618;25.336;2023-10-09T08:48:27;101577.59;;;18.30;42.00
30463;BME280;17256;43.618;25.336;2023-10-09T08:50:53;101627.84;;;18.60;42.37
30463;BME280;17256;43.618;25.336;2023-10-09T08:53:23;101612.00;;;18.85;42.58
30463;BME280;17256;43.618;25.336;2023-10-09T08:55:50;101591.91;;;19.01;42.01
30463;BME280;17256;43.618;25.336;2023-10-09T08:58:17;101575.34;;;19.06;41.90
30463;BME280;17256;43.618;25.336;2023-10-09T09:00:56;101580.47;;;19.10;40.95
30463;BME280;17256;43.618;25.336;2023-10-09T09:03:24;101554.81;;;18.89;39.75
30463;BME280;17256;43.618;25.336;2023-10-09T09:05:59;101617.28;;;19.30;40.31
30463;BME280;17256;43.618;25.336;2023-10-09T09:08:33;101593.53;;;19.46;39.71
30463;BME280;17256;43.618;25.336;2023-10-09T09:11:07;101634.41;;;19.33;39.38
30463;BME280;17256;43.618;25.336;2023-10-09T09:13:47;101534.59;;;18.75;39.73
30463;BME280;17256;43.618;25.336;2023-10-09T09:16:22;101602.13;;;19.26;40.06
30463;BME280;17256;43.618;25.336;2023-10-09T09:18:53;101627.50;;;19.73;40.10
30463;BME280;17256;43.618;25.336;2023-10-09T09:21:27;101584.53;;;19.92;39.41
30463;BME280;17256;43.618;25.336;2023-10-09T09:23:58;101593.09;;;20.32;40.00
30463;BME280;17256;43.618;25.336;2023-10-09T09:26:37;101581.09;;;20.32;39.22
30463;BME280;17256;43.618;25.336;2023-10-09T09:29:06;101615.78;;;20.89;39.16
30463;BME280;17256;43.618;25.336;2023-10-09T09:31:35;101571.22;;;20.47;38.20
30463;BME280;17256;43.618;25.336;2023-10-09T09:34:06;101542.81;;;20.39;38.00
30463;BME280;17256;43.618;25.336;2023-10-09T09:36:55;101598.06;;;20.83;38.38
30463;BME280;17256;43.618;25.336;2023-10-09T09:39:25;101589.28;;;20.80;38.70
30463;BME280;17256;43.618;25.336;2023-10-09T09:41:59;101578.63;;;20.65;38.49
30463;BME280;17256;43.618;25.336;2023-10-09T09:44:33;101560.72;;;20.31;39.01
30463;BME280;17256;43.618;25.336;2023-10-09T09:47:13;101551.66;;;20.36;39.98
30463;BME280;17256;43.618;25.336;2023-10-09T09:49:50;101516.94;;;20.32;38.87
30463;BME280;17256;43.618;25.336;2023-10-09T09:52:21;101572.50;;;20.21;40.32
30463;BME280;17256;43.618;25.336;2023-10-09T09:55:14;101548.00;;;20.23;40.12
30463;BME280;17256;43.618;25.336;2023-10-09T09:58:01;101520.19;;;20.05;40.20
30463;BME280;17256;43.618;25.336;2023-10-09T10:00:36;101532.63;;;20.33;39.25
30463;BME280;17256;43.618;25.336;2023-10-09T10:03:14;101484.19;;;20.27;40.32
30463;BME280;17256;43.618;25.336;2023-10-09T10:05:42;101503.53;;;20.40;39.46
30463;BME280;17256;43.618;25.336;2023-10-09T10:08:15;101456.66;;;20.31;40.05
30463;BME280;17256;43.618;25.336;2023-10-09T10:10:46;101526.06;;;20.85;40.25
30463;BME280;17256;43.618;25.336;2023-10-09T10:16:09;101483.09;;;20.75;39.63
30463;BME280;17256;43.618;25.336;2023-10-09T10:21:50;101488.53;;;20.93;40.47
30463;BME280;17256;43.618;25.336;2023-10-09T10:27:19;101454.44;;;20.79;40.07
30463;BME280;17256;43.618;25.336;2023-10-09T10:35:18;101471.34;;;21.70;39.36
30463;BME280;17256;43.618;25.336;2023-10-09T10:37:46;101441.94;;;21.50;39.67
30463;BME280;17256;43.618;25.336;2023-10-09T10:40:27;101450.91;;;21.53;40.16
30463;BME280;17256;43.618;25.336;2023-10-09T10:43:18;101403.81;;;21.16;40.30
30463;BME280;17256;43.618;25.336;2023-10-09T10:46:03;101445.91;;;21.55;39.51
30463;BME280;17256;43.618;25.336;2023-10-09T10:48:36;101406.53;;;21.39;39.33
30463;BME280;17256;43.618;25.336;2023-10-09T10:51:05;101334.38;;;20.63;41.03
30463;BME280;17256;43.618;25.336;2023-10-09T10:53:31;101423.06;;;21.01;40.07
30463;BME280;17256;43.618;25.336;2023-10-09T10:56:14;101371.69;;;20.73;39.31
30463;BME280;17256;43.618;25.336;2023-10-09T10:58:41;101335.81;;;20.02;40.65
30463;BME280;17256;43.618;25.336;2023-10-09T11:01:19;101386.56;;;20.27;40.57
30463;BME280;17256;43.618;25.336;2023-10-09T11:03:48;101406.34;;;20.25;40.91
30463;BME280;17256;43.618;25.336;2023-10-09T11:06:31;101326.84;;;20.00;40.96
30463;BME280;17256;43.618;25.336;2023-10-09T11:09:07;101389.84;;;20.59;40.72
30463;BME280;17256;43.618;25.336;2023-10-09T11:11:50;101301.59;;;20.18;41.64
30463;BME280;17256;43.618;25.336;2023-10-09T11:14:20;101288.81;;;20.34;41.10
30463;BME280;17256;43.618;25.336;2023-10-09T11:16:54;101347.66;;;20.72;40.71
30463;BME280;17256;43.618;25.336;2023-10-09T11:19:40;101328.72;;;20.74;41.20
30463;BME280;17256;43.618;25.336;2023-10-09T11:22:09;101287.81;;;20.40;41.21
30463;BME280;17256;43.618;25.336;2023-10-09T11:24:35;101301.50;;;20.53;41.15
30463;BME280;17256;43.618;25.336;2023-10-09T11:27:12;101345.47;;;20.74;40.45
30463;BME280;17256;43.618;25.336;2023-10-09T11:29:49;101323.25;;;20.27;40.80
30463;BME280;17256;43.618;25.336;2023-10-09T11:32:17;101294.13;;;19.95;41.03
30463;BME280;17256;43.618;25.336;2023-10-09T11:34:50;101319.72;;;20.32;41.96
30463;BME280;17256;43.618;25.336;2023-10-09T11:37:23;101303.50;;;20.41;41.65
30463;BME280;17256;43.618;25.336;2023-10-09T11:40:29;101269.59;;;20.61;41.24
30463;BME280;17256;43.618;25.336;2023-10-09T11:43:30;101250.25;;;20.87;41.26
30463;BME280;17256;43.618;25.336;2023-10-09T11:46:23;101244.94;;;21.03;41.80
30463;BME280;17256;43.618;25.336;2023-10-09T11:49:17;101280.59;;;21.29;41.72
30463;BME280;17256;43.618;25.336;2023-10-09T11:51:47;101275.84;;;21.30;41.10
30463;BME280;17256;43.618;25.336;2023-10-09T11:54:33;101265.84;;;21.50;40.93
30463;BME280;17256;43.618;25.336;2023-10-09T11:57:13;101251.88;;;21.17;40.07
30463;BME280;17256;43.618;25.336;2023-10-09T11:59:41;101238.25;;;21.20;41.64
30463;BME280;17256;43.618;25.336;2023-10-09T12:02:08;101203.31;;;20.84;40.86
30463;BME280;17256;43.618;25.336;2023-10-09T12:04:40;101167.69;;;20.58;41.60
30463;BME280;17256;43.618;25.336;2023-10-09T12:07:09;101196.09;;;20.72;42.03
30463;BME280;17256;43.618;25.336;2023-10-09T12:09:39;101217.13;;;21.08;41.18
30463;BME280;17256;43.618;25.336;2023-10-09T12:12:06;101257.53;;;20.88;41.74
30463;BME280;17256;43.618;25.336;2023-10-09T12:14:33;101256.28;;;20.96;42.42
30463;BME280;17256;43.618;25.336;2023-10-09T12:17:02;101202.53;;;20.72;42.82
30463;BME280;17256;43.618;25.336;2023-10-09T12:19:34;101187.41;;;20.40;42.85
30463;BME280;17256;43.618;25.336;2023-10-09T12:22:01;101211.28;;;20.47;42.67
30463;BME280;17256;43.618;25.336;2023-10-09T12:24:33;101258.25;;;20.67;42.97
30463;BME280;17256;43.618;25.336;2023-10-09T12:27:10;101209.25;;;20.31;42.82
30463;BME280;17256;43.618;25.336;2023-10-09T12:29:37;101235.84;;;20.62;43.30
30463;BME280;17256;43.618;25.336;2023-10-09T12:32:03;101207.38;;;20.20;42.84
30463;BME280;17256;43.618;25.336;2023-10-09T12:34:47;101196.53;;;19.95;43.28
30463;BME280;17256;43.618;25.336;2023-10-09T12:37:15;101182.41;;;19.73;43.41
30463;BME280;17256;43.618;25.336;2023-10-09T12:39:42;101179.53;;;19.68;43.96
30463;BME280;17256;43.618;25.336;2023-10-09T12:42:08;101162.47;;;19.41;43.49
30463;BME280;17256;43.618;25.336;2023-10-09T12:44:34;101211.06;;;19.97;44.39
30463;BME280;17256;43.618;25.336;2023-10-09T12:47:06;101159.78;;;19.58;44.31
30463;BME280;17256;43.618;25.336;2023-10-09T12:49:32;101206.16;;;19.87;44.81
30463;BME280;17256;43.618;25.336;2023-10-09T12:51:58;101178.38;;;19.81;45.54
30463;BME280;17256;43.618;25.336;2023-10-09T12:54:27;101138.06;;;19.72;44.33
30463;BME280;17256;43.618;25.336;2023-10-09T12:56:54;101114.78;;;19.78;45.36
30463;BME280;17256;43.618;25.336;2023-10-09T12:59:20;101078.19;;;19.86;44.81
30463;BME280;17256;43.618;25.336;2023-10-09T13:01:47;101186.88;;;20.71;44.08
30463;BME280;17256;43.618;25.336;2023-10-09T13:04:18;101145.34;;;20.41;43.56
30463;BME280;17256;43.618;25.336;2023-10-09T13:06:47;101092.00;;;20.26;43.46
30463;BME280;17256;43.618;25.336;2023-10-09T13:09:16;101182.66;;;20.69;43.62
30463;BME280;17256;43.618;25.336;2023-10-09T13:12:01;101068.59;;;19.82;44.00
30463;BME280;17256;43.618;25.336;2023-10-09T13:14:28;101154.16;;;20.38;45.05
30463;BME280;17256;43.618;25.336;2023-10-09T13:16:53;101111.63;;;20.14;44.94
30463;BME280;17256;43.618;25.336;2023-10-09T13:19:20;101134.44;;;20.28;44.42
30463;BME280;17256;43.618;25.336;2023-10-09T13:21:49;101125.94;;;20.06;44.93
30463;BME280;17256;43.618;25.336;2023-10-09T13:24:15;101077.09;;;19.87;44.49
30463;BME280;17256;43.618;25.336;2023-10-09T13:26:45;101092.84;;;20.10;44.94
30463;BME280;17256;43.618;25.336;2023-10-09T13:29:12;101132.06;;;20.65;44.33
30463;BME280;17256;43.618;25.336;2023-10-09T13:31:39;101065.31;;;20.30;44.61
30463;BME280;17256;43.618;25.336;2023-10-09T13:34:05;101070.53;;;20.26;44.52
30463;BME280;17256;43.618;25.336;2023-10-09T13:36:43;101128.34;;;20.31;44.46
30463;BME280;17256;43.618;25.336;2023-10-09T13:39:18;101031.25;;;19.66;45.81
30463;BME280;17256;43.618;25.336;2023-10-09T13:44:30;101084.88;;;20.02;45.43
30463;BME280;17256;43.618;25.336;2023-10-09T13:46:57;101068.72;;;19.87;46.32